sensor_id;sensor_type;location;lat;lon;timestamp;temperature;humidity
67893;DHT22;54688;52.376;16.744;2023-07-16T00:02:31;22.1;41
67893;DHT22;54688;52.376;16.744;2023-07-16T00:05:34;22.1;41.4
67893;DHT22;54688;52.376;16.744;2023-07-16T00:08:38;22.1;41.3
67893;DHT22;54688;52.376;16.744;2023-07-16T00:11:40;22.1;41.8
67893;DHT22;54688;52.376;16.744;2023-07-16T00:14:42;22;41.5
67893;DHT22;54688;52.376;16.744;2023-07-16T00:17:44;22;41.8
67893;DHT22;54688;52.376;16.744;2023-07-16T00:20:46;22;42.1
67893;DHT22;54688;52.376;16.744;2023-07-16T00:23:47;21.9;42.2
67893;DHT22;54688;52.376;16.744;2023-07-16T00:26:49;21.8;42.3
67893;DHT22;54688;52.376;16.744;2023-07-16T00:29:51;21.8;42.4
67893;DHT22;54688;52.376;16.744;2023-07-16T00:32:53;21.7;42.4
67893;DHT22;54688;52.376;16.744;2023-07-16T00:35:55;21.6;42.7
67893;DHT22;54688;52.376;16.744;2023-07-16T00:38:56;21.5;42.8
67893;DHT22;54688;52.376;16.744;2023-07-16T00:41:58;21.5;42.9
67893;DHT22;54688;52.376;16.744;2023-07-16T00:45:01;21.4;43.1
67893;DHT22;54688;52.376;16.744;2023-07-16T00:48:04;21.4;43
67893;DHT22;54688;52.376;16.744;2023-07-16T00:51:08;21.3;43.2
67893;DHT22;54688;52.376;16.744;2023-07-16T00:54:10;21.3;43.4
67893;DHT22;54688;52.376;16.744;2023-07-16T00:57:13;21.2;43.6
67893;DHT22;54688;52.376;16.744;2023-07-16T01:00:15;21.2;43.7
67893;DHT22;54688;52.376;16.744;2023-07-16T01:03:18;21.2;44.1
67893;DHT22;54688;52.376;16.744;2023-07-16T01:06:21;21.1;44
67893;DHT22;54688;52.376;16.744;2023-07-16T01:09:26;21.1;44.2
67893;DHT22;54688;52.376;16.744;2023-07-16T01:12:28;21.1;44.5
67893;DHT22;54688;52.376;16.744;2023-07-16T01:15:31;21;44.3
67893;DHT22;54688;52.376;16.744;2023-07-16T01:18:33;20.9;45.3
67893;DHT22;54688;52.376;16.744;2023-07-16T01:21:37;20.9;45.7
67893;DHT22;54688;52.376;16.744;2023-07-16T01:25:00;20.9;45.5
67893;DHT22;54688;52.376;16.744;2023-07-16T01:28:16;20.8;45.8
67893;DHT22;54688;52.376;16.744;2023-07-16T01:31:28;20.8;46.7
67893;DHT22;54688;52.376;16.744;2023-07-16T01:34:31;20.8;46.8
67893;DHT22;54688;52.376;16.744;2023-07-16T01:37:35;20.7;47
67893;DHT22;54688;52.376;16.744;2023-07-16T01:40:37;20.6;47.1
67893;DHT22;54688;52.376;16.744;2023-07-16T01:43:39;20.6;47
67893;DHT22;54688;52.376;16.744;2023-07-16T01:46:41;20.6;47.3
67893;DHT22;54688;52.376;16.744;2023-07-16T01:49:43;20.5;47.5
67893;DHT22;54688;52.376;16.744;2023-07-16T01:52:44;20.5;47.5
67893;DHT22;54688;52.376;16.744;2023-07-16T01:55:46;20.5;47.7
67893;DHT22;54688;52.376;16.744;2023-07-16T01:58:50;20.5;47.9
67893;DHT22;54688;52.376;16.744;2023-07-16T02:01:52;20.5;47.9
67893;DHT22;54688;52.376;16.744;2023-07-16T02:04:54;20.5;48
67893;DHT22;54688;52.376;16.744;2023-07-16T02:07:56;20.5;48.3
67893;DHT22;54688;52.376;16.744;2023-07-16T02:10:59;20.5;48.4
67893;DHT22;54688;52.376;16.744;2023-07-16T02:14:01;20.5;48.9
67893;DHT22;54688;52.376;16.744;2023-07-16T02:17:03;20.5;49.1
67893;DHT22;54688;52.376;16.744;2023-07-16T02:20:08;20.5;49.4
67893;DHT22;54688;52.376;16.744;2023-07-16T02:23:10;20.5;49.6
67893;DHT22;54688;52.376;16.744;2023-07-16T02:26:13;20.4;49.7
67893;DHT22;54688;52.376;16.744;2023-07-16T02:29:15;20.4;49.9
67893;DHT22;54688;52.376;16.744;2023-07-16T02:32:16;20.4;50.3
67893;DHT22;54688;52.376;16.744;2023-07-16T02:35:18;20.4;50.2
67893;DHT22;54688;52.376;16.744;2023-07-16T02:38:20;20.4;50.2
67893;DHT22;54688;52.376;16.744;2023-07-16T02:41:22;20.3;50.2
67893;DHT22;54688;52.376;16.744;2023-07-16T02:44:24;20.3;50
67893;DHT22;54688;52.376;16.744;2023-07-16T02:47:25;20.3;50.9
67893;DHT22;54688;52.376;16.744;2023-07-16T02:50:27;20.2;51.1
67893;DHT22;54688;52.376;16.744;2023-07-16T02:53:29;20.2;51.7
67893;DHT22;54688;52.376;16.744;2023-07-16T02:56:31;20.2;52
67893;DHT22;54688;52.376;16.744;2023-07-16T02:59:33;20.2;52.3
67893;DHT22;54688;52.376;16.744;2023-07-16T03:02:35;20.2;52.7
67893;DHT22;54688;52.376;16.744;2023-07-16T03:05:38;20.2;53.1
67893;DHT22;54688;52.376;16.744;2023-07-16T03:08:40;20.2;53.4
67893;DHT22;54688;52.376;16.744;2023-07-16T03:11:42;20.2;53.9
67893;DHT22;54688;52.376;16.744;2023-07-16T03:14:44;20.3;53.7
67893;DHT22;54688;52.376;16.744;2023-07-16T03:17:46;20.3;53.9
67893;DHT22;54688;52.376;16.744;2023-07-16T03:20:48;20.3;54.2
67893;DHT22;54688;52.376;16.744;2023-07-16T03:23:50;20.3;54.7
67893;DHT22;54688;52.376;16.744;2023-07-16T03:26:52;20.4;54.2
67893;DHT22;54688;52.376;16.744;2023-07-16T03:29:55;20.4;54.8
67893;DHT22;54688;52.376;16.744;2023-07-16T03:32:56;20.4;54.8
67893;DHT22;54688;52.376;16.744;2023-07-16T03:35:58;20.4;54.6
67893;DHT22;54688;52.376;16.744;2023-07-16T03:39:00;20.4;54.7
67893;DHT22;54688;52.376;16.744;2023-07-16T03:42:02;20.5;54.7
67893;DHT22;54688;52.376;16.744;2023-07-16T03:45:05;20.5;54.6
67893;DHT22;54688;52.376;16.744;2023-07-16T03:48:08;20.5;54.8
67893;DHT22;54688;52.376;16.744;2023-07-16T03:51:10;20.6;55.6
67893;DHT22;54688;52.376;16.744;2023-07-16T03:54:12;20.5;55
67893;DHT22;54688;52.376;16.744;2023-07-16T03:57:14;20.5;55.1
67893;DHT22;54688;52.376;16.744;2023-07-16T04:00:16;20.6;55.2
67893;DHT22;54688;52.376;16.744;2023-07-16T04:03:18;20.6;55.7
67893;DHT22;54688;52.376;16.744;2023-07-16T04:06:19;20.6;55.2
67893;DHT22;54688;52.376;16.744;2023-07-16T04:09:21;20.7;55.1
67893;DHT22;54688;52.376;16.744;2023-07-16T04:12:24;20.8;54.6
67893;DHT22;54688;52.376;16.744;2023-07-16T04:15:26;20.9;54.1
67893;DHT22;54688;52.376;16.744;2023-07-16T04:18:28;21;54
67893;DHT22;54688;52.376;16.744;2023-07-16T04:21:31;21.1;52.5
67893;DHT22;54688;52.376;16.744;2023-07-16T04:24:33;21.3;52.2
67893;DHT22;54688;52.376;16.744;2023-07-16T04:27:35;21.4;51.7
67893;DHT22;54688;52.376;16.744;2023-07-16T04:30:37;21.5;51.4
67893;DHT22;54688;52.376;16.744;2023-07-16T04:33:39;21.6;51
67893;DHT22;54688;52.376;16.744;2023-07-16T04:36:41;21.7;50.7
67893;DHT22;54688;52.376;16.744;2023-07-16T04:39:44;21.8;50.4
67893;DHT22;54688;52.376;16.744;2023-07-16T04:42:46;21.9;50.1
67893;DHT22;54688;52.376;16.744;2023-07-16T04:45:48;22.1;49.8
67893;DHT22;54688;52.376;16.744;2023-07-16T04:48:50;22.2;50
67893;DHT22;54688;52.376;16.744;2023-07-16T04:51:53;22.3;49.2
67893;DHT22;54688;52.376;16.744;2023-07-16T04:54:55;22.4;49.1
67893;DHT22;54688;52.376;16.744;2023-07-16T04:57:57;22.6;49
67893;DHT22;54688;52.376;16.744;2023-07-16T05:00:59;22.7;49.1
67893;DHT22;54688;52.376;16.744;2023-07-16T05:04:02;22.7;49.1
67893;DHT22;54688;52.376;16.744;2023-07-16T05:07:04;22.9;48.9
67893;DHT22;54688;52.376;16.744;2023-07-16T05:10:07;22.9;48.8
67893;DHT22;54688;52.376;16.744;2023-07-16T05:13:10;23;49.1
67893;DHT22;54688;52.376;16.744;2023-07-16T05:16:12;23.1;48.8
67893;DHT22;54688;52.376;16.744;2023-07-16T05:19:15;23.2;48.8
67893;DHT22;54688;52.376;16.744;2023-07-16T05:22:17;23.3;48.6
67893;DHT22;54688;52.376;16.744;2023-07-16T05:25:20;23.3;48.4
67893;DHT22;54688;52.376;16.744;2023-07-16T05:28:24;23.4;47.7
67893;DHT22;54688;52.376;16.744;2023-07-16T05:31:27;23.5;48.4
67893;DHT22;54688;52.376;16.744;2023-07-16T05:34:29;23.7;48.2
67893;DHT22;54688;52.376;16.744;2023-07-16T05:37:31;23.7;48
67893;DHT22;54688;52.376;16.744;2023-07-16T05:40:34;23.8;47.7
67893;DHT22;54688;52.376;16.744;2023-07-16T05:43:36;23.9;47.2
67893;DHT22;54688;52.376;16.744;2023-07-16T05:46:38;24.1;47
67893;DHT22;54688;52.376;16.744;2023-07-16T05:49:40;24.2;46.7
67893;DHT22;54688;52.376;16.744;2023-07-16T05:52:42;24.4;46.7
67893;DHT22;54688;52.376;16.744;2023-07-16T05:55:44;24.5;46.6
67893;DHT22;54688;52.376;16.744;2023-07-16T05:58:46;24.5;45.9
67893;DHT22;54688;52.376;16.744;2023-07-16T06:01:49;24.5;45.5
67893;DHT22;54688;52.376;16.744;2023-07-16T06:04:51;24.6;46
67893;DHT22;54688;52.376;16.744;2023-07-16T06:07:53;24.7;46.1
67893;DHT22;54688;52.376;16.744;2023-07-16T06:10:55;24.7;45.5
67893;DHT22;54688;52.376;16.744;2023-07-16T06:13:57;24.7;45.8
67893;DHT22;54688;52.376;16.744;2023-07-16T06:16:59;24.8;45.7
67893;DHT22;54688;52.376;16.744;2023-07-16T06:20:02;24.8;45.4
67893;DHT22;54688;52.376;16.744;2023-07-16T06:23:05;24.8;45.2
67893;DHT22;54688;52.376;16.744;2023-07-16T06:26:07;24.9;45
67893;DHT22;54688;52.376;16.744;2023-07-16T06:29:10;24.9;45
67893;DHT22;54688;52.376;16.744;2023-07-16T06:32:12;24.9;45.6
67893;DHT22;54688;52.376;16.744;2023-07-16T06:35:15;24.9;45.4
67893;DHT22;54688;52.376;16.744;2023-07-16T06:38:17;24.9;45.1
67893;DHT22;54688;52.376;16.744;2023-07-16T06:41:20;24.8;44.2
67893;DHT22;54688;52.376;16.744;2023-07-16T06:44:22;24.8;45
67893;DHT22;54688;52.376;16.744;2023-07-16T06:47:24;24.7;45.4
67893;DHT22;54688;52.376;16.744;2023-07-16T06:50:26;24.6;45.5
67893;DHT22;54688;52.376;16.744;2023-07-16T06:53:28;24.6;45.9
67893;DHT22;54688;52.376;16.744;2023-07-16T06:56:31;24.5;46.2
67893;DHT22;54688;52.376;16.744;2023-07-16T06:59:33;24.5;46.1
67893;DHT22;54688;52.376;16.744;2023-07-16T07:02:35;24.5;46.1
67893;DHT22;54688;52.376;16.744;2023-07-16T07:05:40;24.4;46.5
67893;DHT22;54688;52.376;16.744;2023-07-16T07:08:42;24.4;51.6
67893;DHT22;54688;52.376;16.744;2023-07-16T07:11:44;24.2;52.1
67893;DHT22;54688;52.376;16.744;2023-07-16T07:14:46;24;51
67893;DHT22;54688;52.376;16.744;2023-07-16T07:17:48;23.9;50.1
67893;DHT22;54688;52.376;16.744;2023-07-16T07:20:50;23.9;50.6
67893;DHT22;54688;52.376;16.744;2023-07-16T07:23:53;23.8;49.8
67893;DHT22;54688;52.376;16.744;2023-07-16T07:26:55;23.8;49.2
67893;DHT22;54688;52.376;16.744;2023-07-16T07:29:58;23.8;49.8
67893;DHT22;54688;52.376;16.744;2023-07-16T07:32:59;23.9;49.2
67893;DHT22;54688;52.376;16.744;2023-07-16T07:36:02;24.1;49.6
67893;DHT22;54688;52.376;16.744;2023-07-16T07:39:04;24.2;48.8
67893;DHT22;54688;52.376;16.744;2023-07-16T07:42:06;24.3;48.8
67893;DHT22;54688;52.376;16.744;2023-07-16T07:45:09;24.4;47.8
67893;DHT22;54688;52.376;16.744;2023-07-16T07:48:12;24.4;50
67893;DHT22;54688;52.376;16.744;2023-07-16T07:51:14;24.2;57.7
67893;DHT22;54688;52.376;16.744;2023-07-16T07:54:16;23.7;58.6
67893;DHT22;54688;52.376;16.744;2023-07-16T07:57:19;23.3;59.7
67893;DHT22;54688;52.376;16.744;2023-07-16T08:00:21;23;60.2
67893;DHT22;54688;52.376;16.744;2023-07-16T08:03:24;22.7;61.7
67893;DHT22;54688;52.376;16.744;2023-07-16T08:06:26;22.6;62.5
67893;DHT22;54688;52.376;16.744;2023-07-16T08:09:29;22.4;63.8
67893;DHT22;54688;52.376;16.744;2023-07-16T08:12:31;22.2;63.7
67893;DHT22;54688;52.376;16.744;2023-07-16T08:15:33;22;65.4
67893;DHT22;54688;52.376;16.744;2023-07-16T08:18:35;21.8;64.3
67893;DHT22;54688;52.376;16.744;2023-07-16T08:21:37;21.7;65.3
67893;DHT22;54688;52.376;16.744;2023-07-16T08:24:39;21.6;66.6
67893;DHT22;54688;52.376;16.744;2023-07-16T08:27:41;21.5;66.6
67893;DHT22;54688;52.376;16.744;2023-07-16T08:30:46;21.4;66
67893;DHT22;54688;52.376;16.744;2023-07-16T08:33:48;21.3;67.3
67893;DHT22;54688;52.376;16.744;2023-07-16T08:36:50;21.3;69.6
67893;DHT22;54688;52.376;16.744;2023-07-16T08:39:52;21.2;69.6
67893;DHT22;54688;52.376;16.744;2023-07-16T08:42:55;21.1;70.4
67893;DHT22;54688;52.376;16.744;2023-07-16T08:45:58;21;70.2
67893;DHT22;54688;52.376;16.744;2023-07-16T08:49:03;20.8;70.5
67893;DHT22;54688;52.376;16.744;2023-07-16T08:52:07;20.7;72
67893;DHT22;54688;52.376;16.744;2023-07-16T08:55:10;20.6;72.4
67893;DHT22;54688;52.376;16.744;2023-07-16T08:58:12;20.4;74.3
67893;DHT22;54688;52.376;16.744;2023-07-16T09:01:15;20.2;74.8
67893;DHT22;54688;52.376;16.744;2023-07-16T09:04:18;20;76.6
67893;DHT22;54688;52.376;16.744;2023-07-16T09:07:20;20;78.4
67893;DHT22;54688;52.376;16.744;2023-07-16T09:10:21;19.9;79.5
67893;DHT22;54688;52.376;16.744;2023-07-16T09:13:23;19.9;79.6
67893;DHT22;54688;52.376;16.744;2023-07-16T09:16:26;19.9;81.4
67893;DHT22;54688;52.376;16.744;2023-07-16T09:19:27;19.9;82
67893;DHT22;54688;52.376;16.744;2023-07-16T09:22:34;20;83.2
67893;DHT22;54688;52.376;16.744;2023-07-16T09:25:36;20.2;82.9
67893;DHT22;54688;52.376;16.744;2023-07-16T09:28:38;20.4;83.3
67893;DHT22;54688;52.376;16.744;2023-07-16T09:31:50;20.5;79.7
67893;DHT22;54688;52.376;16.744;2023-07-16T09:34:54;20.7;78.6
67893;DHT22;54688;52.376;16.744;2023-07-16T09:37:57;20.9;79.4
67893;DHT22;54688;52.376;16.744;2023-07-16T09:40:59;21;78.2
67893;DHT22;54688;52.376;16.744;2023-07-16T09:44:02;21.1;76.2
67893;DHT22;54688;52.376;16.744;2023-07-16T09:47:04;21.3;75.7
67893;DHT22;54688;52.376;16.744;2023-07-16T09:50:06;21.3;73.8
67893;DHT22;54688;52.376;16.744;2023-07-16T09:53:08;21.4;73
67893;DHT22;54688;52.376;16.744;2023-07-16T09:56:10;21.5;72.8
67893;DHT22;54688;52.376;16.744;2023-07-16T09:59:16;21.7;73.1
67893;DHT22;54688;52.376;16.744;2023-07-16T10:02:22;21.8;72
67893;DHT22;54688;52.376;16.744;2023-07-16T10:05:24;22;71.1
67893;DHT22;54688;52.376;16.744;2023-07-16T10:08:32;22;71.2
67893;DHT22;54688;52.376;16.744;2023-07-16T10:11:36;22;68
67893;DHT22;54688;52.376;16.744;2023-07-16T10:14:39;22.1;68.1
67893;DHT22;54688;52.376;16.744;2023-07-16T10:17:49;22.1;67.8
67893;DHT22;54688;52.376;16.744;2023-07-16T10:20:51;22.2;68.5
67893;DHT22;54688;52.376;16.744;2023-07-16T10:23:57;22.3;67.4
67893;DHT22;54688;52.376;16.744;2023-07-16T10:27:00;22.4;65.4
67893;DHT22;54688;52.376;16.744;2023-07-16T10:30:02;22.5;66.2
67893;DHT22;54688;52.376;16.744;2023-07-16T10:33:10;22.6;64.2
67893;DHT22;54688;52.376;16.744;2023-07-16T10:36:17;22.7;63.6
67893;DHT22;54688;52.376;16.744;2023-07-16T10:39:19;22.7;64.1
67893;DHT22;54688;52.376;16.744;2023-07-16T10:42:22;22.7;64.2
67893;DHT22;54688;52.376;16.744;2023-07-16T10:45:26;22.7;63
67893;DHT22;54688;52.376;16.744;2023-07-16T10:48:30;22.8;64.1
67893;DHT22;54688;52.376;16.744;2023-07-16T10:51:32;22.9;64.3
67893;DHT22;54688;52.376;16.744;2023-07-16T10:54:34;23;63.9
67893;DHT22;54688;52.376;16.744;2023-07-16T10:57:36;23.1;63.1
67893;DHT22;54688;52.376;16.744;2023-07-16T11:00:39;23.3;62.7
67893;DHT22;54688;52.376;16.744;2023-07-16T11:03:41;23.5;61.3
67893;DHT22;54688;52.376;16.744;2023-07-16T11:06:44;23.7;62
67893;DHT22;54688;52.376;16.744;2023-07-16T11:09:46;23.8;57.6
67893;DHT22;54688;52.376;16.744;2023-07-16T11:12:50;23.9;59
67893;DHT22;54688;52.376;16.744;2023-07-16T11:15:53;23.9;60.1
67893;DHT22;54688;52.376;16.744;2023-07-16T11:18:55;24.1;55.9
67893;DHT22;54688;52.376;16.744;2023-07-16T11:21:58;24.3;56.6
67893;DHT22;54688;52.376;16.744;2023-07-16T11:25:01;24.5;54.7
67893;DHT22;54688;52.376;16.744;2023-07-16T11:28:03;24.8;54.8
67893;DHT22;54688;52.376;16.744;2023-07-16T11:31:13;25.2;55.6
67893;DHT22;54688;52.376;16.744;2023-07-16T11:34:15;25.7;51.6
67893;DHT22;54688;52.376;16.744;2023-07-16T11:37:18;25.9;51.2
67893;DHT22;54688;52.376;16.744;2023-07-16T11:40:19;26;51.2
67893;DHT22;54688;52.376;16.744;2023-07-16T11:43:22;26.2;49.9
67893;DHT22;54688;52.376;16.744;2023-07-16T11:46:24;26.2;49.9
67893;DHT22;54688;52.376;16.744;2023-07-16T11:49:27;26.2;49.5
67893;DHT22;54688;52.376;16.744;2023-07-16T11:52:29;26.2;49
67893;DHT22;54688;52.376;16.744;2023-07-16T11:58:30;26.2;47.8
67893;DHT22;54688;52.376;16.744;2023-07-16T12:01:32;26.4;48.8
67893;DHT22;54688;52.376;16.744;2023-07-16T12:04:33;26.5;47.2
67893;DHT22;54688;52.376;16.744;2023-07-16T12:07:36;26.8;46.6
67893;DHT22;54688;52.376;16.744;2023-07-16T12:10:39;26.9;44.5
67893;DHT22;54688;52.376;16.744;2023-07-16T12:13:41;26.9;44.8
67893;DHT22;54688;52.376;16.744;2023-07-16T12:16:44;26.9;44.4
67893;DHT22;54688;52.376;16.744;2023-07-16T12:22:46;26.9;44.3
67893;DHT22;54688;52.376;16.744;2023-07-16T12:25:48;26.9;44.4
67893;DHT22;54688;52.376;16.744;2023-07-16T12:28:52;26.9;44.6
67893;DHT22;54688;52.376;16.744;2023-07-16T12:31:54;26.9;43.5
67893;DHT22;54688;52.376;16.744;2023-07-16T12:34:56;27;43.2
67893;DHT22;54688;52.376;16.744;2023-07-16T12:37:58;27.1;43.6
67893;DHT22;54688;52.376;16.744;2023-07-16T12:41:00;27.3;42.5
67893;DHT22;54688;52.376;16.744;2023-07-16T12:44:03;27.4;42.9
67893;DHT22;54688;52.376;16.744;2023-07-16T12:47:05;27.5;42.3
67893;DHT22;54688;52.376;16.744;2023-07-16T12:50:08;27.6;41.8
67893;DHT22;54688;52.376;16.744;2023-07-16T12:53:10;27.7;40.6
67893;DHT22;54688;52.376;16.744;2023-07-16T12:56:12;27.7;40.8
67893;DHT22;54688;52.376;16.744;2023-07-16T12:59:15;27.8;40.3
67893;DHT22;54688;52.376;16.744;2023-07-16T13:02:17;28;40.4
67893;DHT22;54688;52.376;16.744;2023-07-16T13:05:19;28.3;39.4
67893;DHT22;54688;52.376;16.744;2023-07-16T13:08:22;28.6;38.6
67893;DHT22;54688;52.376;16.744;2023-07-16T13:11:24;29;38
67893;DHT22;54688;52.376;16.744;2023-07-16T13:14:27;29;36.9
67893;DHT22;54688;52.376;16.744;2023-07-16T13:17:29;29.1;37.2
67893;DHT22;54688;52.376;16.744;2023-07-16T13:20:31;29.2;36.9
67893;DHT22;54688;52.376;16.744;2023-07-16T13:23:34;29.2;36
67893;DHT22;54688;52.376;16.744;2023-07-16T13:26:36;29.3;36.5
67893;DHT22;54688;52.376;16.744;2023-07-16T13:29:38;29.2;36.5
67893;DHT22;54688;52.376;16.744;2023-07-16T13:32:41;29.1;38.4
67893;DHT22;54688;52.376;16.744;2023-07-16T13:35:43;29.1;38
67893;DHT22;54688;52.376;16.744;2023-07-16T13:38:45;29;37.4
67893;DHT22;54688;52.376;16.744;2023-07-16T13:41:47;28.7;37.6
67893;DHT22;54688;52.376;16.744;2023-07-16T13:44:50;28.5;37.9
67893;DHT22;54688;52.376;16.744;2023-07-16T13:47:52;28.3;38.6
67893;DHT22;54688;52.376;16.744;2023-07-16T13:50:54;28.3;39.7
67893;DHT22;54688;52.376;16.744;2023-07-16T13:53:57;28.2;40.8
67893;DHT22;54688;52.376;16.744;2023-07-16T13:56:59;28.1;40.7
67893;DHT22;54688;52.376;16.744;2023-07-16T14:00:03;28.2;41.1
67893;DHT22;54688;52.376;16.744;2023-07-16T14:03:06;28.3;41.4
67893;DHT22;54688;52.376;16.744;2023-07-16T14:06:07;28.5;41
67893;DHT22;54688;52.376;16.744;2023-07-16T14:09:10;28.7;40.3
67893;DHT22;54688;52.376;16.744;2023-07-16T14:12:11;29.1;39
67893;DHT22;54688;52.376;16.744;2023-07-16T14:15:13;29.3;40
67893;DHT22;54688;52.376;16.744;2023-07-16T14:18:14;29.3;38.6
67893;DHT22;54688;52.376;16.744;2023-07-16T14:21:16;29.3;38.2
67893;DHT22;54688;52.376;16.744;2023-07-16T14:24:18;29.3;39.3
67893;DHT22;54688;52.376;16.744;2023-07-16T14:27:21;29.1;39
67893;DHT22;54688;52.376;16.744;2023-07-16T14:30:23;29.1;39
67893;DHT22;54688;52.376;16.744;2023-07-16T14:33:25;29.1;38.5
67893;DHT22;54688;52.376;16.744;2023-07-16T14:36:28;29.2;39.6
67893;DHT22;54688;52.376;16.744;2023-07-16T14:39:30;29.7;38.3
67893;DHT22;54688;52.376;16.744;2023-07-16T14:42:33;30.1;37
67893;DHT22;54688;52.376;16.744;2023-07-16T14:45:35;30.4;36
67893;DHT22;54688;52.376;16.744;2023-07-16T14:48:37;30.7;35.7
67893;DHT22;54688;52.376;16.744;2023-07-16T14:51:40;31;34.9
67893;DHT22;54688;52.376;16.744;2023-07-16T14:54:42;31.3;34.6
67893;DHT22;54688;52.376;16.744;2023-07-16T14:57:44;31.5;33.4
67893;DHT22;54688;52.376;16.744;2023-07-16T15:00:47;31.7;30.8
67893;DHT22;54688;52.376;16.744;2023-07-16T15:03:49;31.6;29.4
67893;DHT22;54688;52.376;16.744;2023-07-16T15:06:52;31.6;29.3
67893;DHT22;54688;52.376;16.744;2023-07-16T15:12:53;31.6;29.4
67893;DHT22;54688;52.376;16.744;2023-07-16T15:15:55;31.8;29.2
67893;DHT22;54688;52.376;16.744;2023-07-16T15:18:57;31.9;28.9
67893;DHT22;54688;52.376;16.744;2023-07-16T15:22:00;32.3;28.5
67893;DHT22;54688;52.376;16.744;2023-07-16T15:28:01;32.6;26.4
67893;DHT22;54688;52.376;16.744;2023-07-16T15:31:03;32.7;26.7
67893;DHT22;54688;52.376;16.744;2023-07-16T15:34:06;32.8;26.5
67893;DHT22;54688;52.376;16.744;2023-07-16T15:37:08;33;26.6
67893;DHT22;54688;52.376;16.744;2023-07-16T15:40:12;33;26.1
67893;DHT22;54688;52.376;16.744;2023-07-16T15:43:15;32.8;26
67893;DHT22;54688;52.376;16.744;2023-07-16T15:46:17;32.3;26.3
67893;DHT22;54688;52.376;16.744;2023-07-16T15:49:20;32;26.6
67893;DHT22;54688;52.376;16.744;2023-07-16T15:52:22;32.1;27.2
67893;DHT22;54688;52.376;16.744;2023-07-16T15:55:24;32.3;26.8
67893;DHT22;54688;52.376;16.744;2023-07-16T15:58:26;32.7;25.8
67893;DHT22;54688;52.376;16.744;2023-07-16T16:01:28;32.7;26.3
67893;DHT22;54688;52.376;16.744;2023-07-16T16:04:30;32.7;26
67893;DHT22;54688;52.376;16.744;2023-07-16T16:07:33;32.4;26.2
67893;DHT22;54688;52.376;16.744;2023-07-16T16:10:35;32.1;26.3
67893;DHT22;54688;52.376;16.744;2023-07-16T16:13:37;32;26.2
67893;DHT22;54688;52.376;16.744;2023-07-16T16:16:40;32.3;26.2
67893;DHT22;54688;52.376;16.744;2023-07-16T16:19:42;32.6;25
67893;DHT22;54688;52.376;16.744;2023-07-16T16:22:44;33;24.4
67893;DHT22;54688;52.376;16.744;2023-07-16T16:25:47;33.1;25.6
67893;DHT22;54688;52.376;16.744;2023-07-16T16:28:49;33.2;24.6
67893;DHT22;54688;52.376;16.744;2023-07-16T16:31:51;33.1;24.9
67893;DHT22;54688;52.376;16.744;2023-07-16T16:34:54;33.2;25.1
67893;DHT22;54688;52.376;16.744;2023-07-16T16:37:56;33.2;24.3
67893;DHT22;54688;52.376;16.744;2023-07-16T16:41:01;33.1;23.9
67893;DHT22;54688;52.376;16.744;2023-07-16T16:44:03;33.1;23.7
67893;DHT22;54688;52.376;16.744;2023-07-16T16:47:06;33;23.7
67893;DHT22;54688;52.376;16.744;2023-07-16T16:50:08;32.8;23.7
67893;DHT22;54688;52.376;16.744;2023-07-16T16:53:11;32.6;24.1
67893;DHT22;54688;52.376;16.744;2023-07-16T16:59:13;32.6;24.1
67893;DHT22;54688;52.376;16.744;2023-07-16T17:02:16;32.5;23.9
67893;DHT22;54688;52.376;16.744;2023-07-16T17:08:18;32.4;24.7
67893;DHT22;54688;52.376;16.744;2023-07-16T17:11:20;32.5;24.3
67893;DHT22;54688;52.376;16.744;2023-07-16T17:14:22;32.5;24.1
67893;DHT22;54688;52.376;16.744;2023-07-16T17:17:25;32.3;24
67893;DHT22;54688;52.376;16.744;2023-07-16T17:20:27;32.3;24.2
67893;DHT22;54688;52.376;16.744;2023-07-16T17:23:30;32.2;24.7
67893;DHT22;54688;52.376;16.744;2023-07-16T17:26:32;32.1;24.5
67893;DHT22;54688;52.376;16.744;2023-07-16T17:29:34;32;24.7
67893;DHT22;54688;52.376;16.744;2023-07-16T17:32:36;32;25.1
67893;DHT22;54688;52.376;16.744;2023-07-16T17:35:39;31.8;25.1
67893;DHT22;54688;52.376;16.744;2023-07-16T17:38:42;31.6;25
67893;DHT22;54688;52.376;16.744;2023-07-16T17:41:44;31.5;25.3
67893;DHT22;54688;52.376;16.744;2023-07-16T17:44:47;31.4;25.3
67893;DHT22;54688;52.376;16.744;2023-07-16T17:47:49;31.2;25.5
67893;DHT22;54688;52.376;16.744;2023-07-16T17:50:51;31;25.3
67893;DHT22;54688;52.376;16.744;2023-07-16T17:53:54;30.7;25.6
67893;DHT22;54688;52.376;16.744;2023-07-16T17:56:56;30.5;25.9
67893;DHT22;54688;52.376;16.744;2023-07-16T17:59:58;30.2;25.7
67893;DHT22;54688;52.376;16.744;2023-07-16T18:03:01;30;26
67893;DHT22;54688;52.376;16.744;2023-07-16T18:06:03;29.8;26.3
67893;DHT22;54688;52.376;16.744;2023-07-16T18:09:06;29.6;26.7
67893;DHT22;54688;52.376;16.744;2023-07-16T18:12:08;29.4;26.7
67893;DHT22;54688;52.376;16.744;2023-07-16T18:15:10;29.1;26.8
67893;DHT22;54688;52.376;16.744;2023-07-16T18:18:13;28.9;27.1
67893;DHT22;54688;52.376;16.744;2023-07-16T18:21:15;28.6;27.3
67893;DHT22;54688;52.376;16.744;2023-07-16T18:24:18;28.4;27.6
67893;DHT22;54688;52.376;16.744;2023-07-16T18:27:20;28.1;27.5
67893;DHT22;54688;52.376;16.744;2023-07-16T18:30:22;27.9;27.6
67893;DHT22;54688;52.376;16.744;2023-07-16T18:33:25;27.5;28
67893;DHT22;54688;52.376;16.744;2023-07-16T18:36:27;27.3;28.3
67893;DHT22;54688;52.376;16.744;2023-07-16T18:39:30;27.1;28.4
67893;DHT22;54688;52.376;16.744;2023-07-16T18:42:32;26.9;28.5
67893;DHT22;54688;52.376;16.744;2023-07-16T18:45:34;26.7;28.8
67893;DHT22;54688;52.376;16.744;2023-07-16T18:48:37;26.5;29.1
67893;DHT22;54688;52.376;16.744;2023-07-16T18:51:39;26.2;29.5
67893;DHT22;54688;52.376;16.744;2023-07-16T18:54:41;26;29.9
67893;DHT22;54688;52.376;16.744;2023-07-16T18:57:43;25.7;30.1
67893;DHT22;54688;52.376;16.744;2023-07-16T19:00:47;25.5;30.5
67893;DHT22;54688;52.376;16.744;2023-07-16T19:03:49;25.4;31
67893;DHT22;54688;52.376;16.744;2023-07-16T19:09:51;25;31.7
67893;DHT22;54688;52.376;16.744;2023-07-16T19:15:53;24.6;32.6
67893;DHT22;54688;52.376;16.744;2023-07-16T19:18:56;24.4;33.2
67893;DHT22;54688;52.376;16.744;2023-07-16T19:21:58;24.2;33.4
67893;DHT22;54688;52.376;16.744;2023-07-16T19:25:01;24.1;34.7
67893;DHT22;54688;52.376;16.744;2023-07-16T19:28:03;23.8;34.4
67893;DHT22;54688;52.376;16.744;2023-07-16T19:31:06;23.7;35.4
67893;DHT22;54688;52.376;16.744;2023-07-16T19:34:09;23.5;36.6
67893;DHT22;54688;52.376;16.744;2023-07-16T19:37:11;23.4;36.2
67893;DHT22;54688;52.376;16.744;2023-07-16T19:40:14;23.2;36.5
67893;DHT22;54688;52.376;16.744;2023-07-16T19:43:17;23;37.1
67893;DHT22;54688;52.376;16.744;2023-07-16T19:46:19;22.8;37.5
67893;DHT22;54688;52.376;16.744;2023-07-16T19:49:21;22.7;38.2
67893;DHT22;54688;52.376;16.744;2023-07-16T19:52:24;22.5;38.3
67893;DHT22;54688;52.376;16.744;2023-07-16T19:55:27;22.3;39.1
67893;DHT22;54688;52.376;16.744;2023-07-16T19:58:30;22.3;40.3
67893;DHT22;54688;52.376;16.744;2023-07-16T20:01:31;22;40.3
67893;DHT22;54688;52.376;16.744;2023-07-16T20:04:34;21.9;41.1